sensor_id;sensor_type;location;lat;lon;timestamp;temperature;humidity
10143;DHT22;5112;54.088;13.446;2023-07-31T00:04:04;15.00;99.90
10143;DHT22;5112;54.088;13.446;2023-07-31T00:14:07;14.80;99.90
10143;DHT22;5112;54.088;13.446;2023-07-31T00:24:09;14.90;99.90
10143;DHT22;5112;54.088;13.446;2023-07-31T00:34:12;14.60;99.90
10143;DHT22;5112;54.088;13.446;2023-07-31T00:44:14;14.40;99.90
10143;DHT22;5112;54.088;13.446;2023-07-31T00:54:17;14.20;99.90
10143;DHT22;5112;54.088;13.446;2023-07-31T01:04:20;14.00;99.90
10143;DHT22;5112;54.088;13.446;2023-07-31T01:14:23;13.90;99.90
10143;DHT22;5112;54.088;13.446;2023-07-31T01:24:30;13.80;99.90
10143;DHT22;5112;54.088;13.446;2023-07-31T01:34:37;13.70;99.90
10143;DHT22;5112;54.088;13.446;2023-07-31T01:44:39;13.60;99.90
10143;DHT22;5112;54.088;13.446;2023-07-31T01:54:42;13.50;99.90
10143;DHT22;5112;54.088;13.446;2023-07-31T02:04:43;13.40;99.90
10143;DHT22;5112;54.088;13.446;2023-07-31T02:14:46;13.30;99.90
10143;DHT22;5112;54.088;13.446;2023-07-31T02:24:48;13.10;99.90
10143;DHT22;5112;54.088;13.446;2023-07-31T02:34:51;13.10;99.90
10143;DHT22;5112;54.088;13.446;2023-07-31T02:44:53;13.10;99.90
10143;DHT22;5112;54.088;13.446;2023-07-31T02:54:57;12.90;99.90
10143;DHT22;5112;54.088;13.446;2023-07-31T03:04:59;12.90;99.90
10143;DHT22;5112;54.088;13.446;2023-07-31T03:15:02;12.90;99.90
10143;DHT22;5112;54.088;13.446;2023-07-31T03:25:05;12.90;99.90
10143;DHT22;5112;54.088;13.446;2023-07-31T03:35:08;12.90;99.90
10143;DHT22;5112;54.088;13.446;2023-07-31T03:45:10;12.90;99.90
10143;DHT22;5112;54.088;13.446;2023-07-31T03:55:13;13.00;99.90
10143;DHT22;5112;54.088;13.446;2023-07-31T04:05:15;12.90;99.90
10143;DHT22;5112;54.088;13.446;2023-07-31T04:15:18;13.00;99.90
10143;DHT22;5112;54.088;13.446;2023-07-31T04:25:19;13.20;99.90
10143;DHT22;5112;54.088;13.446;2023-07-31T04:35:22;13.40;99.90
10143;DHT22;5112;54.088;13.446;2023-07-31T04:45:24;13.80;99.90
10143;DHT22;5112;54.088;13.446;2023-07-31T04:55:27;14.60;99.90
10143;DHT22;5112;54.088;13.446;2023-07-31T05:05:28;15.00;99.90
10143;DHT22;5112;54.088;13.446;2023-07-31T05:15:31;14.80;99.90
10143;DHT22;5112;54.088;13.446;2023-07-31T05:25:33;14.80;99.90
10143;DHT22;5112;54.088;13.446;2023-07-31T05:35:36;14.90;99.90
10143;DHT22;5112;54.088;13.446;2023-07-31T05:45:39;15.10;99.90
10143;DHT22;5112;54.088;13.446;2023-07-31T05:55:42;15.20;99.90
10143;DHT22;5112;54.088;13.446;2023-07-31T06:05:44;15.30;99.90
10143;DHT22;5112;54.088;13.446;2023-07-31T06:15:47;15.60;99.90
10143;DHT22;5112;54.088;13.446;2023-07-31T06:25:49;15.80;99.90
10143;DHT22;5112;54.088;13.446;2023-07-31T06:35:52;16.00;99.90
10143;DHT22;5112;54.088;13.446;2023-07-31T06:45:53;16.20;99.90
10143;DHT22;5112;54.088;13.446;2023-07-31T06:55:56;16.50;99.90
10143;DHT22;5112;54.088;13.446;2023-07-31T07:05:58;16.50;99.90
10143;DHT22;5112;54.088;13.446;2023-07-31T07:16:01;16.70;99.90
10143;DHT22;5112;54.088;13.446;2023-07-31T07:26:03;16.70;99.90
10143;DHT22;5112;54.088;13.446;2023-07-31T07:36:06;16.70;99.90
10143;DHT22;5112;54.088;13.446;2023-07-31T07:46:10;16.70;99.90
10143;DHT22;5112;54.088;13.446;2023-07-31T07:56:13;17.10;99.90
10143;DHT22;5112;54.088;13.446;2023-07-31T08:06:15;17.30;99.90
10143;DHT22;5112;54.088;13.446;2023-07-31T08:16:18;17.50;99.90
10143;DHT22;5112;54.088;13.446;2023-07-31T08:26:21;17.80;99.90
10143;DHT22;5112;54.088;13.446;2023-07-31T08:36:24;17.90;99.90
10143;DHT22;5112;54.088;13.446;2023-07-31T08:46:25;18.30;99.90
10143;DHT22;5112;54.088;13.446;2023-07-31T08:56:29;18.40;99.90
10143;DHT22;5112;54.088;13.446;2023-07-31T09:06:31;18.50;99.90
10143;DHT22;5112;54.088;13.446;2023-07-31T09:16:35;18.50;99.90
10143;DHT22;5112;54.088;13.446;2023-07-31T09:26:37;18.80;99.90
10143;DHT22;5112;54.088;13.446;2023-07-31T09:36:43;19.20;99.90
10143;DHT22;5112;54.088;13.446;2023-07-31T09:46:45;19.40;99.90
10143;DHT22;5112;54.088;13.446;2023-07-31T09:56:49;19.60;99.90
10143;DHT22;5112;54.088;13.446;2023-07-31T10:06:51;19.90;99.90
10143;DHT22;5112;54.088;13.446;2023-07-31T10:16:57;19.70;99.90
10143;DHT22;5112;54.088;13.446;2023-07-31T10:27:01;19.40;99.90
10143;DHT22;5112;54.088;13.446;2023-07-31T10:37:24;19.20;99.90
10143;DHT22;5112;54.088;13.446;2023-07-31T10:47:26;19.20;99.90
10143;DHT22;5112;54.088;13.446;2023-07-31T10:57:35;19.80;99.90
10143;DHT22;5112;54.088;13.446;2023-07-31T11:07:49;20.00;99.90
10143;DHT22;5112;54.088;13.446;2023-07-31T11:17:52;20.30;99.90
10143;DHT22;5112;54.088;13.446;2023-07-31T11:27:53;20.30;99.90
10143;DHT22;5112;54.088;13.446;2023-07-31T11:37:58;21.00;99.90
10143;DHT22;5112;54.088;13.446;2023-07-31T11:48:00;20.50;99.90
10143;DHT22;5112;54.088;13.446;2023-07-31T11:58:05;20.00;99.90
10143;DHT22;5112;54.088;13.446;2023-07-31T12:08:10;19.90;99.90
10143;DHT22;5112;54.088;13.446;2023-07-31T12:18:15;19.70;99.90
10143;DHT22;5112;54.088;13.446;2023-07-31T12:28:22;18.80;99.90
10143;DHT22;5112;54.088;13.446;2023-07-31T12:38:25;18.50;99.90
10143;DHT22;5112;54.088;13.446;2023-07-31T12:48:27;18.30;99.90
10143;DHT22;5112;54.088;13.446;2023-07-31T12:58:30;18.30;99.90
10143;DHT22;5112;54.088;13.446;2023-07-31T13:08:32;18.30;99.90
10143;DHT22;5112;54.088;13.446;2023-07-31T13:18:35;18.20;99.90
10143;DHT22;5112;54.088;13.446;2023-07-31T13:28:36;18.30;99.90
10143;DHT22;5112;54.088;13.446;2023-07-31T13:38:39;18.00;99.90
10143;DHT22;5112;54.088;13.446;2023-07-31T13:48:41;17.70;99.90
10143;DHT22;5112;54.088;13.446;2023-07-31T13:58:44;17.50;99.90
10143;DHT22;5112;54.088;13.446;2023-07-31T14:08:45;17.30;99.90
10143;DHT22;5112;54.088;13.446;2023-07-31T14:18:48;17.10;99.90
10143;DHT22;5112;54.088;13.446;2023-07-31T14:28:50;16.80;99.90
10143;DHT22;5112;54.088;13.446;2023-07-31T14:38:53;16.80;99.90
10143;DHT22;5112;54.088;13.446;2023-07-31T14:48:55;16.70;99.90
10143;DHT22;5112;54.088;13.446;2023-07-31T14:58:58;16.70;99.90
10143;DHT22;5112;54.088;13.446;2023-07-31T15:09:00;16.40;99.90
10143;DHT22;5112;54.088;13.446;2023-07-31T15:19:03;16.30;99.90
10143;DHT22;5112;54.088;13.446;2023-07-31T15:29:05;16.30;99.90
10143;DHT22;5112;54.088;13.446;2023-07-31T15:39:10;16.10;99.90
10143;DHT22;5112;54.088;13.446;2023-07-31T15:49:12;16.20;99.90
10143;DHT22;5112;54.088;13.446;2023-07-31T15:59:15;16.00;99.90
10143;DHT22;5112;54.088;13.446;2023-07-31T16:09:17;15.80;99.90
10143;DHT22;5112;54.088;13.446;2023-07-31T16:19:20;15.70;99.90
10143;DHT22;5112;54.088;13.446;2023-07-31T16:29:21;15.60;99.90
10143;DHT22;5112;54.088;13.446;2023-07-31T16:39:24;15.60;99.90
10143;DHT22;5112;54.088;13.446;2023-07-31T16:49:26;15.50;99.90
10143;DHT22;5112;54.088;13.446;2023-07-31T16:59:29;15.40;99.90
10143;DHT22;5112;54.088;13.446;2023-07-31T17:09:30;15.30;99.90
10143;DHT22;5112;54.088;13.446;2023-07-31T17:19:33;15.10;99.90
10143;DHT22;5112;54.088;13.446;2023-07-31T17:29:35;15.10;99.90
10143;DHT22;5112;54.088;13.446;2023-07-31T17:39:38;15.10;99.90
10143;DHT22;5112;54.088;13.446;2023-07-31T17:49:40;15.10;99.90
10143;DHT22;5112;54.088;13.446;2023-07-31T17:59:43;15.10;99.90
10143;DHT22;5112;54.088;13.446;2023-07-31T18:09:45;15.00;99.90
10143;DHT22;5112;54.088;13.446;2023-07-31T18:19:48;14.90;99.90
10143;DHT22;5112;54.088;13.446;2023-07-31T18:29:50;14.70;99.90
10143;DHT22;5112;54.088;13.446;2023-07-31T18:39:53;14.70;99.90
10143;DHT22;5112;54.088;13.446;2023-07-31T18:49:54;14.70;99.90
10143;DHT22;5112;54.088;13.446;2023-07-31T18:59:57;14.60;99.90
10143;DHT22;5112;54.088;13.446;2023-07-31T19:09:59;14.60;99.90
10143;DHT22;5112;54.088;13.446;2023-07-31T19:20:02;14.60;99.90
10143;DHT22;5112;54.088;13.446;2023-07-31T19:30:05;14.60;99.90
10143;DHT22;5112;54.088;13.446;2023-07-31T19:40:09;14.70;99.90
10143;DHT22;5112;54.088;13.446;2023-07-31T19:50:11;14.70;99.90
10143;DHT22;5112;54.088;13.446;2023-07-31T20:00:14;14.80;99.90
10143;DHT22;5112;54.088;13.446;2023-07-31T20:10:16;15.00;99.90
10143;DHT22;5112;54.088;13.446;2023-07-31T20:20:19;15.20;99.90
10143;DHT22;5112;54.088;13.446;2023-07-31T20:30:21;15.40;99.90
10143;DHT22;5112;54.088;13.446;2023-07-31T20:40:24;15.60;99.90
10143;DHT22;5112;54.088;13.446;2023-07-31T20:50:25;15.80;99.90
10143;DHT22;5112;54.088;13.446;2023-07-31T21:00:29;16.00;99.90
10143;DHT22;5112;54.088;13.446;2023-07-31T21:10:31;16.20;99.90
10143;DHT22;5112;54.088;13.446;2023-07-31T21:20:36;16.30;99.90
10143;DHT22;5112;54.088;13.446;2023-07-31T21:30:38;16.50;99.90
10143;DHT22;5112;54.088;13.446;2023-07-31T21:40:41;16.70;99.90
10143;DHT22;5112;54.088;13.446;2023-07-31T21:50:43;16.90;99.90
10143;DHT22;5112;54.088;13.446;2023-07-31T22:00:46;17.00;99.90
10143;DHT22;5112;54.088;13.446;2023-07-31T22:10:48;17.20;99.90
10143;DHT22;5112;54.088;13.446;2023-07-31T22:20:51;17.10;99.90
10143;DHT22;5112;54.088;13.446;2023-07-31T22:30:53;17.10;99.90
10143;DHT22;5112;54.088;13.446;2023-07-31T22:51:06;17.20;99.90
10143;DHT22;5112;54.088;13.446;2023-07-31T23:01:08;17.20;99.90
10143;DHT22;5112;54.088;13.446;2023-07-31T23:11:12;17.10;99.90
10143;DHT22;5112;54.088;13.446;2023-07-31T23:21:13;17.00;99.90
10143;DHT22;5112;54.088;13.446;2023-07-31T23:31:16;17.00;99.90
10143;DHT22;5112;54.088;13.446;2023-07-31T23:41:18;17.00;99.90
10143;DHT22;5112;54.088;13.446;2023-07-31T23:51:21;16.90;99.90
